Time;durP1;ratioP1;P1;durP2;ratioP2;P2;SDS_P1;SDS_P2;PMS_P1;PMS_P2;Temp;Humidity;BMP_temperature;BMP_pressure;BME280_temperature;BME280_humidity;BME280_pressure;Samples;Min_cycle;Max_cycle;Signal;HPM_P1;HPM_P2
2022/09/22 04:42:15;;;;;;;12.28;9.08;;;;;;;8.29;100.00;98066.36;1890644;76;23027;-62
2022/09/22 04:44:43;;;;;;;11.50;7.17;;;;;;;8.23;100.00;98069.55;1861529;77;20895;-62
2022/09/22 04:47:09;;;;;;;10.53;5.65;;;;;;;8.26;100.00;98065.03;1861584;77;21955;-62
2022/09/22 04:49:36;;;;;;;5.10;4.60;;;;;;;8.31;100.00;98058.88;1861535;77;20954;-62
2022/09/22 04:52:03;;;;;;;6.47;4.00;;;;;;;8.37;100.00;98058.58;1861506;77;21314;-61
2022/09/22 04:54:30;;;;;;;5.12;3.67;;;;;;;8.46;100.00;98056.12;1857320;77;21343;-62
2022/09/22 04:56:57;;;;;;;4.40;3.45;;;;;;;8.57;100.00;98059.02;1826667;77;20966;-62
2022/09/22 04:59:23;;;;;;;4.75;4.12;;;;;;;8.63;100.00;98066.72;1861296;77;21422;-60
2022/09/22 05:01:50;;;;;;;4.42;3.77;;;;;;;8.72;100.00;98057.58;1861334;77;20895;-62
2022/09/22 05:04:17;;;;;;;8.83;3.50;;;;;;;8.80;100.00;98058.34;1838197;77;21397;-62
2022/09/22 05:06:43;;;;;;;3.67;3.37;;;;;;;8.89;100.00;98067.37;1856465;77;20876;-64
2022/09/22 05:09:11;;;;;;;5.55;3.92;;;;;;;8.94;100.00;98066.80;1860271;77;20916;-60
2022/09/22 05:11:38;;;;;;;5.20;3.72;;;;;;;9.01;100.00;98067.82;1840745;76;21098;-60
2022/09/22 05:14:05;;;;;;;4.03;3.62;;;;;;;9.04;100.00;98068.61;1853970;77;21082;-60
2022/09/22 05:16:34;;;;;;;4.78;3.40;;;;;;;9.07;100.00;98065.36;1861284;77;20863;-60
2022/09/22 05:19:01;;;;;;;4.28;3.60;;;;;;;9.13;100.00;98072.81;1854272;77;21489;-60
2022/09/22 05:21:28;;;;;;;5.85;3.52;;;;;;;9.14;100.00;98067.74;1858102;77;21054;-60
2022/09/22 05:23:55;;;;;;;4.20;3.37;;;;;;;9.15;100.00;98071.46;1847752;77;22021;-56
2022/09/22 05:26:22;;;;;;;4.53;3.80;;;;;;;9.12;100.00;98080.03;1855401;77;20939;-57
2022/09/22 05:28:50;;;;;;;3.95;3.45;;;;;;;9.07;100.00;98076.05;1854857;77;21058;-57
2022/09/22 05:31:19;;;;;;;4.70;3.62;;;;;;;9.08;100.00;98079.53;1826085;77;21466;-57
2022/09/22 05:33:45;;;;;;;6.37;3.52;;;;;;;9.10;100.00;98077.37;1845868;77;21062;-58
2022/09/22 05:36:12;;;;;;;6.83;3.60;;;;;;;9.13;100.00;98078.96;1859054;77;21116;-60
2022/09/22 05:38:39;;;;;;;3.75;3.45;;;;;;;9.16;100.00;98076.27;1859169;77;21524;-56
2022/09/22 05:41:05;;;;;;;3.95;3.47;;;;;;;9.15;100.00;98078.14;1855078;77;20971;-60
2022/09/22 05:43:32;;;;;;;4.08;3.67;;;;;;;9.16;100.00;98076.27;1845541;77;20983;-57
2022/09/22 05:45:59;;;;;;;4.72;3.83;;;;;;;9.17;100.00;98077.85;1847398;77;20989;-58
2022/09/22 05:48:43;;;;;;;6.10;4.35;;;;;;;9.17;100.00;98082.66;1841286;77;21133;-59
2022/09/22 05:51:10;;;;;;;6.85;5.15;;;;;;;9.14;100.00;98076.53;1833509;77;20912;-59
2022/09/22 05:53:36;;;;;;;7.05;4.95;;;;;;;9.14;100.00;98078.43;1821805;77;20978;-60
2022/09/22 05:56:03;;;;;;;7.20;5.40;;;;;;;9.15;100.00;98076.80;1846274;77;21041;-58
2022/09/22 05:58:30;;;;;;;10.43;5.58;;;;;;;9.17;100.00;98079.19;1835523;77;20911;-58
2022/09/22 06:00:57;;;;;;;5.58;4.80;;;;;;;9.15;100.00;98084.02;1847636;77;21240;-58
2022/09/22 06:03:28;;;;;;;6.85;4.65;;;;;;;9.13;100.00;98084.84;1846341;77;21002;-59
2022/09/22 06:05:59;;;;;;;6.60;4.30;;;;;;;9.08;100.00;98087.01;1846186;77;28615;-59
2022/09/22 06:08:25;;;;;;;6.45;4.58;;;;;;;9.09;100.00;98083.81;1848811;77;20924;-59
2022/09/22 06:10:52;;;;;;;5.97;4.90;;;;;;;9.11;100.00;98090.47;1835831;77;21042;-58
2022/09/22 06:13:22;;;;;;;5.03;4.50;;;;;;;9.13;100.00;98093.66;1842311;77;20880;-59
2022/09/22 06:15:48;;;;;;;9.90;6.00;;;;;;;9.14;100.00;98083.21;1846737;77;20987;-57
2022/09/22 06:18:16;;;;;;;7.20;5.80;;;;;;;9.15;100.00;98088.02;1846697;77;21025;-59
2022/09/22 06:20:44;;;;;;;9.75;5.97;;;;;;;9.17;100.00;98089.34;1845741;77;20934;-59
2022/09/22 06:23:14;;;;;;;6.42;5.10;;;;;;;9.21;100.00;98090.38;1847216;77;20892;-64
2022/09/22 06:25:42;;;;;;;8.63;5.15;;;;;;;9.22;100.00;98083.97;1825613;77;21112;-67
2022/09/22 06:28:12;;;;;;;5.30;4.62;;;;;;;9.22;100.00;98083.16;1841443;77;20907;-64
2022/09/22 06:30:40;;;;;;;11.90;5.20;;;;;;;9.23;100.00;98080.20;1835527;77;21003;-60
2022/09/22 06:33:08;;;;;;;5.05;4.55;;;;;;;9.28;100.00;98077.49;1838787;77;21453;-59
2022/09/22 06:35:36;;;;;;;4.85;4.42;;;;;;;9.30;100.00;98079.91;1834743;77;20999;-59
2022/09/22 06:38:09;;;;;;;6.28;4.12;;;;;;;9.29;100.00;98075.09;1832078;77;21311;-64
2022/09/22 06:40:37;;;;;;;4.17;3.77;;;;;;;9.36;100.00;98075.57;1832513;77;21038;-63
2022/09/22 06:43:21;;;;;;;5.40;4.42;;;;;;;9.47;100.00;98081.08;1826530;77;21042;-65
2022/09/22 06:45:58;;;;;;;6.00;5.17;;;;;;;9.54;100.00;98072.20;1808075;77;21737;-57
2022/09/22 06:48:32;;;;;;;7.15;4.55;;;;;;;9.57;100.00;98074.84;1823174;77;21502;-60
2022/09/22 06:51:01;;;;;;;5.97;4.30;;;;;;;9.62;100.00;98079.63;1743308;80;21104;-61
2022/09/22 06:53:32;;;;;;;5.40;4.55;;;;;;;9.71;100.00;98083.81;1756084;80;20964;-60
2022/09/22 06:56:04;;;;;;;7.05;4.45;;;;;;;9.70;100.00;98086.78;1749452;80;20900;-56
2022/09/22 06:58:31;;;;;;;5.97;4.53;;;;;;;9.72;100.00;98096.12;1754053;80;20916;-56
2022/09/22 07:01:06;;;;;;;4.85;3.90;;;;;;;9.69;100.00;98096.67;1757685;80;21296;-58
2022/09/22 07:03:39;;;;;;;6.42;4.40;;;;;;;9.66;100.00;98101.80;1744193;80;21277;-59
2022/09/22 07:06:01;;;;;;;4.65;4.25;;;;;;;9.60;100.00;98096.49;1773141;79;21023;-57
2022/09/22 07:08:30;;;;;;;4.85;4.35;;;;;;;9.61;100.00;98100.75;1745277;80;21112;-55
2022/09/22 07:11:07;;;;;;;6.78;3.70;;;;;;;9.67;100.00;98108.20;1745489;80;20963;-57
2022/09/22 07:13:41;;;;;;;4.22;3.22;;;;;;;9.74;100.00;98110.00;1761461;81;20922;-55
2022/09/22 07:16:17;;;;;;;4.53;3.60;;;;;;;9.79;100.00;98106.48;1758229;81;21098;-55
2022/09/22 07:18:51;;;;;;;4.78;3.77;;;;;;;9.81;100.00;98106.99;1764754;81;21002;-56
2022/09/22 07:21:23;;;;;;;5.58;4.00;;;;;;;9.81;100.00;98109.67;1770371;80;20936;-56
2022/09/22 07:23:53;;;;;;;4.17;3.15;;;;;;;9.81;100.00;98119.03;1797343;78;20983;-57
2022/09/22 07:26:32;;;;;;;4.90;3.83;;;;;;;9.79;100.00;98114.50;1806064;78;21036;-57
2022/09/22 07:29:07;;;;;;;5.42;3.83;;;;;;;9.82;100.00;98116.63;1820269;78;21238;-57
2022/09/22 07:31:40;;;;;;;4.05;3.65;;;;;;;9.85;100.00;98112.03;1810581;78;21034;-58
2022/09/22 07:34:17;;;;;;;5.08;4.05;;;;;;;9.83;100.00;98120.34;1819415;77;21023;-54
2022/09/22 07:36:48;;;;;;;3.95;3.50;;;;;;;9.85;100.00;98117.38;1811071;77;21132;-54
2022/09/22 07:39:15;;;;;;;5.87;3.62;;;;;;;9.88;100.00;98118.16;1806929;78;21451;-55
2022/09/22 07:41:42;;;;;;;3.98;3.58;;;;;;;9.94;100.00;98119.73;1802171;78;21333;-56
2022/09/22 07:46:57;;;;;;;6.20;3.10;;;;;;;9.95;100.00;98116.75;1839182;77;20911;-57
2022/09/22 07:49:32;;;;;;;3.47;2.52;;;;;;;9.96;100.00;98117.56;1838230;77;21351;-57
2022/09/22 07:52:06;;;;;;;3.17;2.87;;;;;;;9.94;100.00;98114.38;1826561;77;21039;-60
2022/09/22 07:54:38;;;;;;;5.85;3.00;;;;;;;10.02;100.00;98117.75;1847837;77;22660;-61
2022/09/22 07:57:09;;;;;;;5.40;3.42;;;;;;;10.12;100.00;98119.03;1844963;77;21022;-59
2022/09/22 07:59:38;;;;;;;6.50;3.40;;;;;;;10.17;100.00;98121.66;1827613;77;21049;-56
2022/09/22 08:02:05;;;;;;;4.92;3.30;;;;;;;10.20;100.00;98121.06;1832243;77;21028;-62
2022/09/22 08:04:32;;;;;;;6.55;2.80;;;;;;;10.18;100.00;98111.19;1836874;77;20900;-55
2022/09/22 08:06:59;;;;;;;3.27;2.95;;;;;;;10.26;100.00;98113.25;1834602;77;21723;-57
2022/09/22 08:09:27;;;;;;;4.53;3.77;;;;;;;10.39;100.00;98117.13;1827523;77;21054;-59
2022/09/22 08:11:54;;;;;;;4.60;3.50;;;;;;;10.48;100.00;98114.85;1831077;77;21003;-59
2022/09/22 08:14:22;;;;;;;3.95;3.30;;;;;;;10.58;100.00;98116.08;1829830;77;21028;-56
2022/09/22 08:16:52;;;;;;;5.90;3.02;;;;;;;10.65;100.00;98117.86;1845762;77;21054;-57
2022/09/22 08:19:21;;;;;;;3.15;2.85;;;;;;;10.75;100.00;98117.73;1845353;77;22320;-58
2022/09/22 08:21:51;;;;;;;5.35;3.00;;;;;;;10.78;100.00;98115.83;1807671;77;21081;-55
2022/09/22 08:24:20;;;;;;;4.40;3.15;;;;;;;10.80;100.00;98121.70;1835711;77;20925;-57
2022/09/22 08:26:49;;;;;;;4.40;2.72;;;;;;;10.84;100.00;98120.02;1756913;80;21095;-58
2022/09/22 08:29:15;;;;;;;7.08;2.85;;;;;;;10.89;100.00;98121.30;1796886;79;20979;-57
2022/09/22 08:31:50;;;;;;;8.83;2.58;;;;;;;10.92;100.00;98126.09;1821756;77;21487;-57
2022/09/22 08:34:18;;;;;;;;;;;;;;;10.99;100.00;98129.75;1831253;77;22178;-56
2022/09/22 08:36:47;;;;;;;3.20;2.40;;;;;;;11.06;100.00;98124.82;1831840;77;20178;-56
2022/09/22 08:39:14;;;;;;;2.50;2.30;;;;;;;11.14;100.00;98124.72;1826533;77;21082;-56
2022/09/22 08:42:04;;;;;;;3.77;2.15;;;;;;;11.16;100.00;98125.22;1833916;77;21082;-57
2022/09/22 08:44:43;;;;;;;2.62;2.02;;;;;;;11.19;100.00;98121.41;1837516;77;21140;-55
2022/09/22 08:51:50;;;;;;;2.30;1.98;;;;;;;11.21;98.98;98121.91;1833105;77;21113;-56
2022/09/22 08:52:52;;;;;;;4.70;2.27;;;;;;;11.34;98.08;98116.36;1828255;77;20962;-55
2022/09/22 08:55:22;;;;;;;3.52;1.90;;;;;;;11.28;96.55;98116.20;1825827;77;21280;-56
2022/09/22 08:58:19;;;;;;;2.55;1.85;;;;;;;11.24;96.33;98121.88;1842065;77;21068;-57
2022/09/22 09:00:51;;;;;;;2.33;1.75;;;;;;;11.20;95.88;98123.55;1847324;77;21014;-56
2022/09/22 09:03:32;;;;;;;4.87;1.82;;;;;;;11.14;95.77;98124.16;1840778;77;20967;-57
2022/09/22 09:06:30;;;;;;;4.45;2.00;;;;;;;11.12;95.74;98124.19;1831451;77;21411;-56
2022/09/22 09:09:05;;;;;;;1.95;1.65;;;;;;;11.18;96.12;98121.70;1840462;78;20976;-60
2022/09/22 09:11:47;;;;;;;2.72;1.92;;;;;;;11.24;96.13;98119.19;1840960;78;21114;-59
2022/09/22 09:14:41;;;;;;;2.12;1.60;;;;;;;11.31;96.40;98118.28;1816426;77;20885;-58
2022/09/22 09:17:13;;;;;;;3.77;1.85;;;;;;;11.42;96.09;98118.39;1829902;77;21091;-57
2022/09/22 09:19:52;;;;;;;2.00;1.75;;;;;;;11.52;94.61;98125.72;1835175;77;21376;-59
2022/09/22 09:22:27;;;;;;;2.20;1.70;;;;;;;11.51;93.92;98126.02;1835297;77;21054;-56
2022/09/22 09:25:05;;;;;;;2.00;1.60;;;;;;;11.47;92.54;98126.37;1839314;77;21130;-56
2022/09/22 09:27:37;;;;;;;1.95;1.57;;;;;;;11.37;92.92;98122.49;1833338;77;21038;-57
2022/09/22 09:30:16;;;;;;;3.80;1.62;;;;;;;11.30;92.74;98129.57;1840717;77;21350;-57
2022/09/22 09:32:59;;;;;;;5.17;2.05;;;;;;;11.32;93.30;98121.23;1846164;77;21406;-57
2022/09/22 09:35:46;;;;;;;1.47;1.37;;;;;;;11.35;92.23;98120.65;1841658;77;21380;-57
2022/09/22 09:38:28;;;;;;;2.87;1.70;;;;;;;11.31;91.17;98120.95;1826077;77;21206;-58
2022/09/22 09:41:25;;;;;;;2.00;1.70;;;;;;;11.27;91.83;98123.98;1823259;77;21052;-59
2022/09/22 09:43:55;;;;;;;1.65;1.55;;;;;;;11.24;91.75;98125.89;1836859;77;21135;-58
2022/09/22 09:47:07;;;;;;;1.90;1.50;;;;;;;11.28;92.17;98121.00;1781594;77;21242;-59
2022/09/22 09:49:34;;;;;;;1.72;1.50;;;;;;;11.30;91.59;98121.53;1834304;77;21592;-58
2022/09/22 09:52:01;;;;;;;2.85;1.55;;;;;;;11.36;92.22;98128.93;1832079;77;21156;-59
2022/09/22 09:54:28;;;;;;;3.70;1.50;;;;;;;11.40;92.13;98128.63;1832773;77;20958;-59
2022/09/22 09:57:13;;;;;;;4.08;1.52;;;;;;;11.40;91.92;98128.63;1827303;77;21660;-59
2022/09/22 10:02:48;;;;;;;3.05;1.65;;;;;;;11.47;92.30;98126.37;1838091;77;21034;-58
2022/09/22 10:05:21;;;;;;;2.60;2.00;;;;;;;11.49;91.94;98133.00;1835408;77;22118;-58
2022/09/22 10:07:56;;;;;;;2.75;2.00;;;;;;;11.50;92.43;98131.92;1836160;77;21045;-58
2022/09/22 10:10:36;;;;;;;3.70;3.10;;;;;;;11.53;91.70;98135.91;1830196;77;21696;-58
2022/09/22 10:13:08;;;;;;;2.10;1.77;;;;;;;11.51;90.79;98132.73;1834327;77;21524;-58
2022/09/22 10:15:39;;;;;;;2.50;1.90;;;;;;;11.41;90.24;98132.88;1824985;77;21133;-62
2022/09/22 10:18:39;;;;;;;2.17;1.80;;;;;;;11.37;91.30;98130.00;1828872;77;20986;-59
2022/09/22 10:21:19;;;;;;;3.40;1.90;;;;;;;11.38;90.90;98128.89;1832051;77;21040;-61
2022/09/22 10:23:58;;;;;;;1.87;1.67;;;;;;;11.39;90.85;98129.16;1827250;77;20967;-62
2022/09/22 10:26:30;;;;;;;2.00;1.80;;;;;;;11.41;90.81;98122.95;1842615;77;20896;-58
2022/09/22 10:29:13;;;;;;;3.45;2.20;;;;;;;11.46;91.44;98128.78;1829635;77;21058;-59
2022/09/22 10:31:41;;;;;;;3.22;1.98;;;;;;;11.53;90.86;98130.55;1825706;77;21218;-62
2022/09/22 10:34:36;;;;;;;2.33;2.12;;;;;;;11.58;90.46;98126.45;1840072;77;21321;-57
2022/09/22 10:37:09;;;;;;;3.40;2.00;;;;;;;11.58;90.38;98134.49;1832686;77;21023;-60
2022/09/22 10:39:51;;;;;;;2.80;2.08;;;;;;;11.63;90.80;98129.83;1845317;77;20875;-56
2022/09/22 10:42:35;;;;;;;2.92;2.00;;;;;;;11.71;90.28;98135.10;1818905;77;21044;-58
2022/09/22 10:45:14;;;;;;;2.55;2.00;;;;;;;11.79;90.22;98127.73;1810330;77;21251;-57
2022/09/22 10:47:50;;;;;;;3.25;1.67;;;;;;;11.89;89.96;98120.86;1839709;77;21136;-53
2022/09/22 10:50:52;;;;;;;2.33;1.80;;;;;;;12.02;90.00;98119.27;1836370;77;21010;-58
2022/09/22 10:53:44;;;;;;;4.33;1.60;;;;;;;12.14;88.57;98123.08;1828880;77;20941;-57
2022/09/22 10:56:34;;;;;;;5.40;1.82;;;;;;;12.19;87.44;98118.96;1851780;77;20992;-56
2022/09/22 10:59:33;;;;;;;2.45;2.20;;;;;;;12.17;86.76;98122.50;1854560;77;21113;-56
2022/09/22 11:02:44;;;;;;;1.98;1.70;;;;;;;12.17;87.50;98113.09;1838861;77;20966;-57
2022/09/22 11:12:16;;;;;;;2.25;1.55;;;;;;;12.58;86.09;98105.56;1778658;80;21050;-61
2022/09/22 11:15:20;;;;;;;2.05;1.60;;;;;;;12.76;86.29;98106.81;1856205;77;22019;-63
2022/09/22 11:18:18;;;;;;;5.30;1.85;;;;;;;13.03;85.32;98104.59;1848225;77;21051;-59
2022/09/22 11:21:15;;;;;;;2.92;1.60;;;;;;;13.19;82.17;98097.03;1854399;77;21005;-58
2022/09/22 11:23:56;;;;;;;2.17;1.98;;;;;;;13.20;80.35;98085.15;1854942;77;20977;-57
2022/09/22 11:26:51;;;;;;;2.10;1.90;;;;;;;13.20;80.35;98085.15;1851763;77;21012;-56
2022/09/22 11:29:44;;;;;;;2.45;1.62;;;;;;;13.27;78.88;98083.63;1812825;77;21496;-56
2022/09/22 11:32:43;;;;;;;1.85;1.50;;;;;;;13.35;78.82;98074.84;1848200;77;21020;-57
2022/09/22 11:35:28;;;;;;;1.87;1.50;;;;;;;13.48;77.88;98069.14;1838677;77;21081;-57
2022/09/22 11:38:18;;;;;;;1.70;1.60;;;;;;;13.49;78.14;98075.58;1855398;77;21046;-55
2022/09/22 11:41:16;;;;;;;2.83;1.60;;;;;;;13.49;76.23;98074.23;1849175;77;20914;-57
2022/09/22 11:44:16;;;;;;;1.65;1.50;;;;;;;13.44;75.83;98081.08;1845961;77;21985;-57
2022/09/22 11:47:07;;;;;;;2.35;1.55;;;;;;;13.47;75.38;98081.79;1851060;77;21445;-57
2022/09/22 11:50:01;;;;;;;1.80;1.30;;;;;;;13.43;74.95;98064.67;1841005;77;20964;-57
2022/09/22 11:52:45;;;;;;;2.70;1.70;;;;;;;13.34;74.69;98065.17;1836225;77;21458;-61
2022/09/22 11:55:26;;;;;;;5.80;1.70;;;;;;;13.38;75.89;98068.03;1780917;77;21452;-60
2022/09/22 11:57:57;;;;;;;1.82;1.40;;;;;;;13.31;76.30;98068.47;1845580;77;21809;-61
2022/09/22 12:00:24;;;;;;;3.22;1.92;;;;;;;13.16;76.21;98060.77;1845870;77;21426;-60
2022/09/22 12:02:59;;;;;;;4.65;2.08;;;;;;;13.07;76.35;98069.33;1846202;77;20836;-60
2022/09/22 12:05:40;;;;;;;3.12;2.05;;;;;;;13.03;77.10;98065.61;1843611;77;20949;-60
2022/09/22 12:08:14;;;;;;;3.05;1.90;;;;;;;12.97;77.76;98064.14;1840291;77;21054;-64
2022/09/22 12:10:46;;;;;;;2.58;1.80;;;;;;;12.91;78.77;98058.62;1852870;77;21085;-61
2022/09/22 12:13:21;;;;;;;3.77;2.00;;;;;;;12.84;79.06;98060.38;1848970;77;20865;-60
2022/09/22 12:16:40;;;;;;;4.70;2.40;;;;;;;12.80;79.92;98063.98;1846800;77;21453;-58
2022/09/22 12:19:22;;;;;;;4.45;2.10;;;;;;;12.88;80.27;98056.56;1846653;77;21007;-59
2022/09/22 12:22:08;;;;;;;4.45;1.95;;;;;;;13.26;80.29;98052.45;1836118;77;21035;-61
2022/09/22 12:24:38;;;;;;;1.72;1.62;;;;;;;13.62;80.92;98050.48;1843966;77;21104;-57
2022/09/22 12:27:23;;;;;;;2.42;1.90;;;;;;;14.04;77.68;98055.02;1841834;77;20924;-57
2022/09/22 12:30:07;;;;;;;2.67;1.70;;;;;;;14.21;74.28;98056.45;1840905;77;21509;-57
2022/09/22 12:32:39;;;;;;;1.77;1.60;;;;;;;14.24;73.18;98051.25;1844021;77;21041;-58
2022/09/22 12:35:09;;;;;;;2.40;1.80;;;;;;;14.18;74.50;98044.39;1814369;77;21548;-57
2022/09/22 12:37:37;;;;;;;1.80;1.70;;;;;;;14.10;75.09;98049.76;1836039;77;21165;-58
2022/09/22 12:40:29;;;;;;;2.47;1.87;;;;;;;14.00;76.48;98044.64;1853619;77;20962;-60
2022/09/22 12:42:58;;;;;;;3.22;1.70;;;;;;;13.95;77.43;98047.47;1799596;79;21020;-62
2022/09/22 12:45:33;;;;;;;3.33;1.72;;;;;;;13.86;78.98;98037.22;1760630;80;20936;-62
2022/09/22 12:48:15;;;;;;;2.72;1.77;;;;;;;13.76;78.11;98034.78;1751220;81;21488;-56
2022/09/22 12:50:45;;;;;;;2.12;1.70;;;;;;;13.69;79.23;98033.34;1765277;81;21235;-69
2022/09/22 12:53:27;;;;;;;2.25;1.90;;;;;;;13.73;78.64;98036.99;1766624;81;21463;-64
2022/09/22 12:55:55;;;;;;;2.02;1.50;;;;;;;13.79;79.94;98043.59;1753332;81;21145;-58
2022/09/22 12:58:31;;;;;;;2.27;1.60;;;;;;;13.97;77.42;98032.59;1751949;81;21029;-63
2022/09/22 13:01:34;;;;;;;1.55;1.45;;;;;;;14.09;76.69;98038.73;1751641;81;21084;-66
2022/09/22 13:04:17;;;;;;;1.60;1.50;;;;;;;14.11;77.75;98037.86;1785269;79;21084;-59
2022/09/22 13:06:49;;;;;;;1.40;1.20;;;;;;;14.16;77.79;98040.42;1745706;80;20970;-58
2022/09/22 13:09:25;;;;;;;1.40;1.30;;;;;;;14.20;77.05;98042.17;1816563;78;21008;-59
2022/09/22 13:12:22;;;;;;;4.40;1.30;;;;;;;14.29;76.14;98034.14;1803036;78;21001;-57
2022/09/22 13:15:01;;;;;;;2.58;1.50;;;;;;;14.52;75.32;98030.26;1808570;78;20940;-58
2022/09/22 13:17:42;;;;;;;2.95;1.65;;;;;;;14.80;74.99;98032.11;1769567;80;21596;-59
2022/09/22 13:20:26;;;;;;;2.77;1.80;;;;;;;14.98;74.63;98025.06;1818167;77;21051;-57
2022/09/22 13:22:55;;;;;;;4.30;2.00;;;;;;;14.96;74.91;98027.83;1805004;77;21175;-57
2022/09/22 13:25:27;;;;;;;4.53;2.30;;;;;;;14.79;75.45;98031.31;1808706;77;21028;-59
2022/09/22 13:28:09;;;;;;;8.23;2.30;;;;;;;14.55;75.57;98032.33;1807897;78;20957;-59
2022/09/22 13:30:43;;;;;;;3.10;1.60;;;;;;;14.37;76.34;98036.08;1815738;78;21197;-60
2022/09/22 13:33:22;;;;;;;2.67;1.80;;;;;;;14.24;75.67;98037.77;1810820;78;20989;-56
2022/09/22 13:36:02;;;;;;;2.85;1.80;;;;;;;14.20;75.22;98039.48;1834021;77;20990;-60
2022/09/22 13:38:41;;;;;;;2.47;1.72;;;;;;;14.25;73.41;98043.39;1845964;77;21075;-60
2022/09/22 13:41:16;;;;;;;3.77;1.98;;;;;;;14.21;72.67;98039.73;1819178;78;21114;-60
2022/09/22 13:43:47;;;;;;;2.87;2.10;;;;;;;14.14;72.29;98034.55;1811065;77;21204;-60
2022/09/22 13:46:25;;;;;;;3.50;1.80;;;;;;;14.02;73.58;98037.04;1816398;77;21387;-59
2022/09/22 13:48:53;;;;;;;3.05;1.92;;;;;;;13.90;74.64;98035.48;1830246;77;21031;-59
2022/09/22 13:51:20;;;;;;;2.12;1.80;;;;;;;13.78;74.65;98034.72;1771919;80;20994;-60
2022/09/22 13:53:50;;;;;;;1.87;1.60;;;;;;;13.65;76.23;98039.11;1769943;80;21094;-59
2022/09/22 13:56:18;;;;;;;4.25;1.75;;;;;;;13.54;76.79;98036.41;1765019;79;21267;-59
2022/09/22 14:06:38;;;;;;;5.00;2.60;;;;;;;13.22;77.87;98043.41;1744396;80;20955;-61
2022/09/22 14:09:06;;;;;;;3.08;2.60;;;;;;;13.18;78.00;98044.33;1741878;80;21130;-60
2022/09/22 14:11:32;;;;;;;2.80;2.20;;;;;;;13.10;78.43;98051.22;1745584;82;21026;-61
2022/09/22 14:14:00;;;;;;;2.00;1.60;;;;;;;12.97;78.31;98062.80;1725035;82;21026;-60
2022/09/22 14:16:47;;;;;;;0.98;0.90;;;;;;;12.78;75.91;98068.88;1762953;80;21023;-60
2022/09/22 14:19:32;;;;;;;1.02;0.93;;;;;;;12.55;71.57;98071.25;1773849;80;21153;-59
2022/09/22 14:22:18;;;;;;;1.22;0.93;;;;;;;12.29;71.63;98074.44;1783027;80;21666;-59
2022/09/22 14:24:49;;;;;;;1.10;0.98;;;;;;;12.06;72.23;98064.69;1777302;80;21071;-59
2022/09/22 14:27:50;;;;;;;2.22;0.80;;;;;;;11.87;71.78;98076.05;1776041;80;21513;-59
2022/09/22 14:30:18;;;;;;;2.72;0.70;;;;;;;11.70;72.86;98075.84;1768167;80;21096;-59
2022/09/22 14:32:51;;;;;;;1.25;0.72;;;;;;;11.46;73.94;98082.65;1773146;80;21356;-61
2022/09/22 14:35:30;;;;;;;1.45;0.80;;;;;;;11.28;75.09;98088.05;1769870;80;21534;-62
2022/09/22 14:38:00;;;;;;;1.45;0.80;;;;;;;11.10;76.48;98087.50;1767658;80;20972;-61
2022/09/22 14:40:26;;;;;;;1.22;0.85;;;;;;;10.97;77.76;98099.20;1778403;80;21498;-59
2022/09/22 14:43:02;;;;;;;1.72;0.90;;;;;;;10.85;78.66;98098.05;1773996;80;20880;-60
2022/09/22 14:45:31;;;;;;;1.37;1.10;;;;;;;10.77;79.58;98104.05;1770952;80;21530;-59
2022/09/22 14:48:17;;;;;;;2.92;1.95;;;;;;;10.69;79.99;98106.81;1774823;80;21882;-64
2022/09/22 14:51:00;;;;;;;3.55;1.65;;;;;;;10.61;80.48;98099.44;1815632;78;20836;-62
2022/09/22 14:53:36;;;;;;;3.72;1.10;;;;;;;10.56;81.22;98100.84;1815753;79;20919;-60
2022/09/22 14:56:13;;;;;;;1.77;1.20;;;;;;;10.54;81.43;98096.85;1848185;77;20919;-59
2022/09/22 14:58:41;;;;;;;1.50;0.90;;;;;;;10.53;81.78;98095.27;1848144;77;20936;-61
2022/09/22 15:23:46;;;;;;;3.83;1.45;;;;;;;10.35;83.86;98106.19;1828545;77;23255;-59
2022/09/22 15:26:17;;;;;;;1.75;1.40;;;;;;;10.28;83.77;98105.20;1793657;80;21435;-64
2022/09/22 15:28:47;;;;;;;5.03;1.85;;;;;;;10.26;83.81;98103.88;1791859;80;21104;-63
2022/09/22 15:31:13;;;;;;;2.30;1.25;;;;;;;10.27;84.19;98106.80;1794660;79;20880;-55
2022/09/22 15:33:39;;;;;;;4.78;1.40;;;;;;;10.30;84.65;98112.93;1787112;80;21363;-62
2022/09/22 15:36:12;;;;;;;1.72;1.30;;;;;;;10.30;84.61;98116.41;1792725;78;21494;-63
2022/09/22 15:38:39;;;;;;;3.42;1.70;;;;;;;10.35;84.87;98108.86;1787606;80;20928;-70
2022/09/22 15:41:09;;;;;;;3.02;1.87;;;;;;;10.35;84.81;98108.86;1790799;80;22119;-61
2022/09/22 15:43:34;;;;;;;5.15;2.80;;;;;;;10.36;84.91;98111.00;1793093;79;20881;-60
2022/09/22 15:46:06;;;;;;;3.40;3.10;;;;;;;10.35;85.18;98114.22;1793718;79;21404;-61
2022/09/22 15:48:38;;;;;;;4.35;1.90;;;;;;;10.34;85.44;98116.63;1791626;79;20900;-60
2022/09/22 15:51:10;;;;;;;3.27;1.92;;;;;;;10.32;85.98;98120.70;1793540;79;20829;-64
2022/09/22 15:53:37;;;;;;;2.60;2.15;;;;;;;10.28;85.99;98115.09;1793633;79;21122;-60
